Time;durP1;ratioP1;P1;durP2;ratioP2;P2;SDS_P1;SDS_P2;PMS_P1;PMS_P2;Temp;Humidity;BMP_temperature;BMP_pressure;BME280_temperature;BME280_humidity;BME280_pressure;Samples;Min_cycle;Max_cycle;Signal;HPM_P1;HPM_P2
2021/09/30 00:00:58;;;;;;;22.58;14.87;;;;;;;19.77;67.86;100521.44;4484492;32;33470;-49
2021/09/30 00:03:26;;;;;;;20.35;14.55;;;;;;;19.75;67.79;100525.88;4484437;32;34348;-50
2021/09/30 00:05:54;;;;;;;20.35;15.07;;;;;;;19.80;67.39;100516.06;4484162;32;34869;-51
2021/09/30 00:08:21;;;;;;;20.33;14.98;;;;;;;19.67;67.94;100512.88;4483982;32;34211;-50
2021/09/30 00:11:11;;;;;;;25.05;15.85;;;;;;;19.84;67.54;100520.34;4469824;32;33836;-52
2021/09/30 00:32:37;;;;;;;20.27;14.35;;;;;;;19.75;67.98;100523.25;4484011;32;34418;-52
2021/09/30 00:35:55;;;;;;;20.42;13.70;;;;;;;19.43;68.76;100535.47;4451190;32;34702;-51
2021/09/30 00:49:14;;;;;;;15.68;12.35;;;;;;;19.28;67.93;100532.31;4486038;32;36037;-49
2021/09/30 00:52:00;;;;;;;23.87;12.82;;;;;;;19.28;67.90;100533.16;4486107;32;34977;-52
2021/09/30 02:26:52;;;;;;;9.57;7.55;;;;;;;18.51;65.69;100605.19;4473075;32;33720;-52
2021/09/30 02:40:22;;;;;;;9.00;7.07;;;;;;;18.38;66.44;100606.25;4485151;32;34876;-51
2021/09/30 02:59:43;;;;;;;11.55;8.25;;;;;;;18.20;67.23;100615.41;4473254;32;33952;-49
2021/09/30 03:02:11;;;;;;;11.88;7.82;;;;;;;18.07;67.74;100609.47;4471146;32;35106;-51
2021/09/30 03:04:41;;;;;;;11.48;8.10;;;;;;;18.13;67.57;100612.03;4471209;32;35135;-51
2021/09/30 03:07:10;;;;;;;11.88;8.63;;;;;;;18.19;66.84;100619.78;4471031;32;33312;-51
2021/09/30 03:09:43;;;;;;;10.05;8.90;;;;;;;18.13;67.19;100617.28;4470978;32;34737;-51
2021/09/30 03:12:28;;;;;;;10.32;8.55;;;;;;;18.16;66.80;100616.37;4485044;32;35747;-51
2021/09/30 03:15:15;;;;;;;10.23;8.98;;;;;;;18.14;67.17;100616.37;4485185;32;34172;-50
2021/09/30 03:17:51;;;;;;;9.63;8.27;;;;;;;18.07;67.54;100625.28;4484938;32;34276;-52
2021/09/30 03:23:12;;;;;;;12.25;8.30;;;;;;;18.06;67.75;100627.94;4472475;32;34746;-51
2021/09/30 03:25:42;;;;;;;9.95;8.45;;;;;;;18.02;67.87;100629.75;4470946;32;34521;-51
2021/09/30 03:28:11;;;;;;;13.10;9.65;;;;;;;18.05;67.73;100629.69;4471238;32;34064;-53
2021/09/30 03:30:38;;;;;;;11.98;9.43;;;;;;;18.06;67.78;100633.22;4470568;32;33923;-54
2021/09/30 03:33:09;;;;;;;10.45;8.80;;;;;;;18.04;67.33;100627.94;4484757;32;34932;-49
2021/09/30 03:35:38;;;;;;;13.75;9.95;;;;;;;17.97;67.31;100628.94;4470808;32;35195;-52
2021/09/30 03:38:07;;;;;;;12.10;9.15;;;;;;;18.00;67.76;100625.41;4484892;32;34250;-51
2021/09/30 03:40:36;;;;;;;11.52;8.80;;;;;;;18.01;67.84;100624.53;4484909;32;34771;-53
2021/09/30 03:43:04;;;;;;;10.10;9.10;;;;;;;18.07;67.69;100627.91;4484633;32;35289;-53
2021/09/30 03:45:35;;;;;;;12.70;9.70;;;;;;;17.86;68.34;100636.16;4484896;32;34344;-55
2021/09/30 03:48:05;;;;;;;11.43;9.23;;;;;;;17.86;68.47;100625.66;4484636;32;33425;-51
2021/09/30 03:50:42;;;;;;;12.50;9.50;;;;;;;17.90;68.22;100622.06;4484988;32;33818;-50
2021/09/30 03:53:18;;;;;;;10.73;9.63;;;;;;;17.91;68.22;100630.81;4471858;32;34922;-50
2021/09/30 04:01:21;;;;;;;11.27;9.50;;;;;;;17.88;68.31;100631.75;4484659;32;34730;-50
2021/09/30 04:03:49;;;;;;;11.07;9.10;;;;;;;18.06;67.56;100634.09;4484662;32;34994;-51
2021/09/30 04:06:17;;;;;;;10.48;9.02;;;;;;;17.89;68.24;100635.25;4484615;32;34450;-49
2021/09/30 04:08:45;;;;;;;13.35;9.73;;;;;;;18.03;67.85;100635.88;4484274;32;33405;-51
2021/09/30 04:11:13;;;;;;;12.37;9.48;;;;;;;18.01;67.88;100637.69;4484516;32;34940;-49
2021/09/30 04:13:41;;;;;;;11.98;10.15;;;;;;;17.87;68.19;100635.28;4484534;32;34943;-49
2021/09/30 04:16:09;;;;;;;28.83;22.40;;;;;;;18.00;67.78;100628.91;4484554;32;34825;-49
2021/09/30 04:18:36;;;;;;;18.30;14.48;;;;;;;18.09;67.46;100631.38;4484217;32;33507;-51
2021/09/30 04:21:05;;;;;;;22.52;18.00;;;;;;;18.11;67.40;100626.94;4484320;32;34038;-50
2021/09/30 04:23:33;;;;;;;19.08;16.12;;;;;;;18.03;67.62;100634.13;4484129;32;35792;-49
2021/09/30 04:26:00;;;;;;;17.23;15.00;;;;;;;18.03;67.66;100638.50;4484481;32;34480;-49
2021/09/30 04:28:29;;;;;;;15.15;12.80;;;;;;;18.09;67.81;100628.75;4470228;32;34243;-51
2021/09/30 04:30:57;;;;;;;14.10;10.27;;;;;;;18.01;68.16;100632.41;4484265;32;33886;-51
2021/09/30 04:33:24;;;;;;;12.13;10.30;;;;;;;18.28;66.91;100626.63;4484389;32;35758;-52
2021/09/30 04:35:52;;;;;;;10.55;9.50;;;;;;;18.11;67.49;100637.47;4469812;32;34349;-49
2021/09/30 04:38:20;;;;;;;13.57;10.50;;;;;;;18.12;67.70;100635.72;4484228;32;33288;-50
2021/09/30 04:40:48;;;;;;;10.45;9.35;;;;;;;18.07;67.83;100638.44;4484074;32;33933;-49
2021/09/30 04:43:15;;;;;;;12.52;10.20;;;;;;;18.09;67.78;100644.53;4469943;32;34754;-49
2021/09/30 04:45:43;;;;;;;10.55;9.52;;;;;;;18.12;67.78;100644.50;4484039;32;35228;-51
2021/09/30 04:48:13;;;;;;;14.70;9.90;;;;;;;18.06;68.09;100643.75;4483697;32;33879;-51
2021/09/30 04:50:40;;;;;;;13.40;10.82;;;;;;;18.02;67.94;100645.53;4483999;32;34733;-50
2021/09/30 04:53:08;;;;;;;13.82;10.90;;;;;;;18.03;68.00;100652.56;4483898;32;35715;-49
2021/09/30 04:55:37;;;;;;;13.68;10.75;;;;;;;17.79;68.75;100650.31;4483793;32;35066;-49
2021/09/30 04:58:05;;;;;;;13.48;11.20;;;;;;;17.99;67.35;100658.78;4484004;32;33307;-50
2021/09/30 05:00:34;;;;;;;14.45;10.98;;;;;;;17.97;67.79;100660.53;4483743;32;34603;-50
2021/09/30 05:03:02;;;;;;;15.32;11.55;;;;;;;18.00;68.18;100671.03;4469655;32;35022;-51
2021/09/30 05:05:30;;;;;;;15.88;10.95;;;;;;;17.91;68.65;100668.53;4483777;32;34149;-49
2021/09/30 05:07:57;;;;;;;13.75;11.73;;;;;;;17.86;68.81;100672.13;4483749;32;33535;-51
2021/09/30 05:10:32;;;;;;;18.85;13.38;;;;;;;17.85;68.66;100670.41;4469258;32;33786;-51
2021/09/30 05:13:04;;;;;;;19.80;13.55;;;;;;;18.04;68.00;100672.69;4483602;32;36139;-51
2021/09/30 05:15:33;;;;;;;19.67;14.13;;;;;;;17.99;68.02;100678.97;4469947;32;34204;-49
2021/09/30 05:18:03;;;;;;;17.60;14.50;;;;;;;18.04;67.73;100683.22;4483440;32;33518;-49
2021/09/30 05:20:32;;;;;;;19.27;14.60;;;;;;;18.10;67.51;100685.78;4485199;32;35242;-49
2021/09/30 05:23:01;;;;;;;16.48;13.90;;;;;;;18.04;67.30;100677.97;4482158;32;34944;-55
2021/09/30 05:25:31;;;;;;;19.77;14.40;;;;;;;17.94;67.58;100684.28;4485725;32;35102;-50
2021/09/30 05:28:02;;;;;;;20.55;14.82;;;;;;;17.94;67.76;100689.56;4471729;32;33370;-49
2021/09/30 05:30:30;;;;;;;19.35;15.18;;;;;;;17.94;67.98;100689.56;4485529;32;34758;-52
2021/09/30 05:33:01;;;;;;;18.65;14.70;;;;;;;18.05;67.46;100692.88;4485772;32;35296;-51
2021/09/30 05:35:30;;;;;;;19.90;15.73;;;;;;;18.03;67.95;100697.31;4485552;32;34566;-51
2021/09/30 05:37:58;;;;;;;16.95;14.40;;;;;;;17.97;67.85;100697.38;4485817;32;33995;-49
2021/09/30 05:40:28;;;;;;;21.12;15.15;;;;;;;18.00;67.71;100693.84;4485766;32;34696;-49
2021/09/30 05:42:58;;;;;;;21.98;15.65;;;;;;;17.94;68.05;100693.94;4485790;32;35015;-49
2021/09/30 05:45:26;;;;;;;21.00;16.50;;;;;;;17.95;67.88;100699.19;4471874;32;34131;-49
2021/09/30 05:47:53;;;;;;;22.83;16.85;;;;;;;17.69;68.83;100708.34;4485830;32;33549;-50
2021/09/30 05:50:21;;;;;;;22.23;16.52;;;;;;;17.75;68.64;100706.53;4485253;32;33775;-49
2021/09/30 05:52:50;;;;;;;20.65;16.85;;;;;;;17.98;68.25;100700.88;4471510;32;35000;-51
2021/09/30 05:55:18;;;;;;;21.08;16.23;;;;;;;18.00;68.41;100712.25;4485613;32;35199;-49
2021/09/30 05:57:46;;;;;;;17.70;12.27;;;;;;;17.92;68.79;100709.78;4485610;32;33347;-52
2021/09/30 06:00:21;;;;;;;19.23;15.63;;;;;;;17.89;69.43;100715.06;4471261;32;33243;-49
2021/09/30 06:11:22;;;;;;;19.50;15.02;;;;;;;17.68;70.07;100728.56;4473323;32;33910;-53
2021/09/30 06:16:24;;;;;;;18.95;14.55;;;;;;;17.73;70.28;100733.75;4485365;32;34349;-49
2021/09/30 06:18:53;;;;;;;18.65;14.73;;;;;;;18.05;69.33;100737.63;4485586;32;33386;-49
2021/09/30 06:21:21;;;;;;;22.83;16.48;;;;;;;18.04;69.48;100735.03;4485524;32;33797;-49
2021/09/30 06:23:48;;;;;;;22.70;14.77;;;;;;;18.20;69.10;100740.03;4485520;32;34795;-49
2021/09/30 06:26:16;;;;;;;24.87;15.85;;;;;;;18.34;68.61;100739.78;4485326;32;34234;-48
2021/09/30 06:28:45;;;;;;;21.83;15.75;;;;;;;18.32;68.76;100740.72;4485210;32;32464;-49
2021/09/30 06:31:13;;;;;;;23.77;16.40;;;;;;;18.52;68.17;100749.19;4484686;32;33929;-48
2021/09/30 06:33:42;;;;;;;23.42;16.02;;;;;;;18.71;67.55;100759.34;4485511;32;35113;-49
2021/09/30 06:36:11;;;;;;;20.85;16.55;;;;;;;18.62;67.92;100756.00;4485528;32;33986;-48
2021/09/30 06:38:40;;;;;;;21.48;16.42;;;;;;;18.66;67.96;100755.91;4485230;32;33286;-48
2021/09/30 06:41:10;;;;;;;19.58;16.55;;;;;;;18.65;67.96;100753.31;4471654;32;34408;-48
2021/09/30 06:43:39;;;;;;;20.27;15.02;;;;;;;18.81;67.50;100762.69;4485371;32;35110;-47
2021/09/30 06:46:12;;;;;;;24.35;17.45;;;;;;;18.68;68.09;100755.91;4471092;32;33560;-48
2021/09/30 06:48:40;;;;;;;17.17;14.77;;;;;;;18.67;68.34;100760.31;4485310;32;33561;-48
2021/09/30 06:51:10;;;;;;;19.50;15.20;;;;;;;18.76;67.90;100759.25;4471294;32;34229;-48
2021/09/30 06:53:40;;;;;;;21.60;13.57;;;;;;;19.02;66.90;100756.16;4485024;32;34704;-47
2021/09/30 06:56:20;;;;;;;20.42;13.55;;;;;;;18.86;67.45;100764.34;4485192;32;32960;-48
2021/09/30 06:59:08;;;;;;;19.23;12.85;;;;;;;18.88;67.33;100773.09;4485292;32;33325;-50
2021/09/30 07:01:42;;;;;;;16.92;12.73;;;;;;;19.20;65.59;100774.25;4470912;32;32594;-48
2021/09/30 07:04:11;;;;;;;17.58;13.07;;;;;;;19.19;64.63;100773.38;4485160;32;33361;-53
2021/09/30 07:06:40;;;;;;;18.15;13.52;;;;;;;19.18;65.26;100765.50;4485199;32;34506;-48
2021/09/30 07:09:07;;;;;;;16.15;12.95;;;;;;;19.00;66.14;100776.37;4484922;32;34389;-50
2021/09/30 07:11:35;;;;;;;15.68;12.18;;;;;;;18.97;66.51;100785.22;4484862;32;34801;-52
2021/09/30 07:14:03;;;;;;;15.32;11.70;;;;;;;18.85;66.66;100783.69;4484829;32;35777;-52
2021/09/30 07:16:30;;;;;;;17.58;11.45;;;;;;;18.97;66.12;100784.38;4485193;32;34360;-53
2021/09/30 07:18:58;;;;;;;12.27;10.60;;;;;;;18.64;66.45;100797.25;4484930;32;34165;-50
2021/09/30 07:21:25;;;;;;;11.77;10.30;;;;;;;18.74;66.22;100797.94;4484790;32;33870;-49
2021/09/30 07:23:56;;;;;;;13.07;10.25;;;;;;;18.64;66.77;100801.62;4484855;32;34921;-49
2021/09/30 07:26:24;;;;;;;13.48;10.90;;;;;;;18.56;66.94;100804.44;4484852;32;34150;-49
2021/09/30 07:28:51;;;;;;;18.10;10.65;;;;;;;18.59;66.97;100811.41;4484776;32;33490;-49
2021/09/30 07:31:19;;;;;;;16.70;11.02;;;;;;;18.60;66.60;100810.50;4484832;32;33278;-50
2021/09/30 07:33:47;;;;;;;16.12;11.40;;;;;;;18.46;67.24;100813.37;4484752;32;35824;-49
2021/09/30 07:36:17;;;;;;;16.42;11.98;;;;;;;18.40;67.66;100817.84;4484746;32;34215;-48
2021/09/30 07:38:44;;;;;;;14.90;11.00;;;;;;;18.33;67.75;100816.19;4484986;32;33451;-48
2021/09/30 07:41:12;;;;;;;12.23;10.88;;;;;;;18.46;67.39;100817.75;4484725;32;33748;-48
2021/09/30 07:43:39;;;;;;;13.10;10.50;;;;;;;18.22;68.50;100826.87;4483852;32;35183;-48
2021/09/30 07:46:07;;;;;;;14.43;11.70;;;;;;;18.29;68.11;100828.53;4484937;32;34153;-49
2021/09/30 07:48:34;;;;;;;15.85;10.45;;;;;;;18.39;67.99;100834.53;4484592;32;34354;-49
2021/09/30 07:51:02;;;;;;;15.05;10.27;;;;;;;18.31;68.22;100837.28;4484467;32;33976;-49
2021/09/30 07:53:30;;;;;;;13.95;10.68;;;;;;;18.31;68.33;100836.38;4470323;32;34705;-53
2021/09/30 07:55:57;;;;;;;11.63;9.05;;;;;;;18.22;68.62;100846.19;4483901;32;35155;-49
2021/09/30 07:58:25;;;;;;;10.98;8.57;;;;;;;18.26;68.09;100852.25;4484592;32;33440;-48
2021/09/30 08:00:53;;;;;;;10.05;9.02;;;;;;;18.22;68.36;100846.19;4484372;32;33974;-48
2021/09/30 08:03:21;;;;;;;13.93;8.65;;;;;;;18.19;67.80;100851.50;4484388;32;35118;-50
2021/09/30 08:05:51;;;;;;;11.93;9.27;;;;;;;18.26;67.70;100853.13;4484397;32;35146;-49
2021/09/30 08:08:19;;;;;;;11.23;9.30;;;;;;;18.22;67.74;100856.72;4470212;32;33111;-50
2021/09/30 08:10:47;;;;;;;9.18;8.27;;;;;;;18.13;68.16;100856.88;4484179;32;33974;-49
2021/09/30 08:13:14;;;;;;;10.73;7.90;;;;;;;18.02;68.82;100857.87;4484298;32;34779;-49
2021/09/30 08:15:42;;;;;;;11.68;8.90;;;;;;;17.95;67.86;100853.59;4484566;32;34940;-51
2021/09/30 08:18:10;;;;;;;9.90;7.80;;;;;;;17.82;69.18;100854.66;4484292;32;33947;-52
2021/09/30 08:20:44;;;;;;;10.73;8.75;;;;;;;17.94;68.64;100849.22;4470024;32;34217;-51
2021/09/30 08:23:13;;;;;;;12.90;8.75;;;;;;;17.85;69.17;100859.88;4484132;32;34738;-52
2021/09/30 08:25:42;;;;;;;10.75;7.50;;;;;;;17.82;69.15;100854.66;4484073;32;35127;-52
2021/09/30 08:28:11;;;;;;;8.77;7.70;;;;;;;17.74;70.03;100861.75;4484137;32;33416;-51
2021/09/30 08:30:40;;;;;;;10.82;7.93;;;;;;;17.87;69.69;100869.50;4469733;32;34041;-48
2021/09/30 08:33:11;;;;;;;10.90;7.28;;;;;;;17.64;69.06;100871.53;4484080;32;35129;-52
2021/09/30 08:35:39;;;;;;;11.40;7.85;;;;;;;17.96;68.60;100869.38;4483990;32;34240;-52
2021/09/30 08:38:07;;;;;;;11.90;7.65;;;;;;;18.02;68.90;100869.28;4484037;32;34815;-51
2021/09/30 08:40:34;;;;;;;10.13;7.82;;;;;;;18.14;67.56;100874.37;4483845;32;34965;-54
2021/09/30 08:43:02;;;;;;;9.88;7.25;;;;;;;18.04;68.48;100875.38;4484042;32;34766;-53
2021/09/30 08:45:30;;;;;;;11.23;7.10;;;;;;;18.07;68.33;100874.47;4469757;32;34913;-48
2021/09/30 08:48:05;;;;;;;10.13;6.87;;;;;;;18.08;67.48;100879.75;4483353;32;33489;-49
2021/09/30 08:50:40;;;;;;;9.40;7.43;;;;;;;17.98;68.49;100877.25;4483626;32;34310;-48
2021/09/30 08:53:08;;;;;;;;;;;;;;;17.92;68.81;100872.94;4470212;32;34684;-48
2021/09/30 08:55:37;;;;;;;9.07;7.18;;;;;;;17.90;68.05;100882.59;4484648;32;34653;-48
2021/09/30 08:58:06;;;;;;;10.32;7.18;;;;;;;17.93;68.85;100879.06;4483241;32;33296;-49
2021/09/30 09:00:37;;;;;;;9.60;7.03;;;;;;;17.83;68.33;100869.56;4483705;32;34769;-48
2021/09/30 09:03:05;;;;;;;10.75;6.87;;;;;;;17.87;68.05;100877.41;4482666;32;35012;-49
2021/09/30 09:05:38;;;;;;;8.82;7.18;;;;;;;17.68;69.23;100878.53;4482024;32;34494;-50
2021/09/30 09:08:08;;;;;;;9.70;7.18;;;;;;;17.93;67.78;100876.44;4481828;32;33487;-49
2021/09/30 09:10:46;;;;;;;11.57;6.75;;;;;;;17.73;69.05;100878.47;4467069;32;34447;-51
2021/09/30 09:13:18;;;;;;;11.63;7.75;;;;;;;17.80;68.70;100880.13;4467946;32;33942;-49
2021/09/30 09:15:56;;;;;;;14.50;11.10;;;;;;;17.65;68.63;100881.19;4484839;32;35268;-49
2021/09/30 09:18:27;;;;;;;10.80;7.53;;;;;;;17.58;69.07;100876.88;4468793;32;33373;-48
2021/09/30 09:21:10;;;;;;;18.95;13.18;;;;;;;17.63;68.48;100888.22;4480708;32;33734;-48
2021/09/30 09:23:58;;;;;;;29.52;22.70;;;;;;;17.28;69.39;100891.19;4482172;32;35610;-54
2021/09/30 09:26:34;;;;;;;13.60;10.82;;;;;;;17.51;69.93;100880.44;4481572;32;35196;-51
2021/09/30 09:29:09;;;;;;;10.75;9.65;;;;;;;17.45;70.01;100891.00;4481195;32;33775;-49
2021/09/30 09:31:42;;;;;;;8.88;6.95;;;;;;;17.26;71.22;100886.81;4481644;32;34877;-47
2021/09/30 09:34:23;;;;;;;10.07;7.85;;;;;;;17.14;71.17;100885.19;4481636;32;35791;-48
2021/09/30 09:36:52;;;;;;;10.07;7.45;;;;;;;17.28;70.99;100892.97;4481529;32;35347;-50
2021/09/30 09:39:33;;;;;;;9.15;7.62;;;;;;;17.38;69.88;100884.06;4481538;32;33304;-51
2021/09/30 09:42:25;;;;;;;6.90;6.20;;;;;;;17.52;69.80;100895.34;4467365;32;34043;-50
2021/09/30 09:44:59;;;;;;;8.40;7.18;;;;;;;17.36;70.42;100891.09;4481023;32;36182;-51
2021/09/30 09:47:32;;;;;;;10.90;7.30;;;;;;;17.35;70.63;100890.22;4481591;32;35337;-50
2021/09/30 09:50:18;;;;;;;7.35;5.87;;;;;;;17.26;71.13;100885.06;4481625;32;33487;-49
2021/09/30 09:52:52;;;;;;;7.25;5.97;;;;;;;17.40;71.02;100891.06;4481382;32;33729;-51
2021/09/30 09:55:32;;;;;;;6.85;5.60;;;;;;;17.58;69.36;100893.53;4481178;32;35866;-53
2021/09/30 09:58:19;;;;;;;6.25;4.68;;;;;;;17.48;69.45;100896.25;4481049;32;35627;-51
2021/09/30 10:00:50;;;;;;;7.07;5.55;;;;;;;17.69;69.38;100892.53;4480883;32;34307;-50
2021/09/30 10:03:22;;;;;;;6.43;5.50;;;;;;;17.56;68.96;100894.44;4482682;32;33838;-52
2021/09/30 10:05:50;;;;;;;9.95;7.00;;;;;;;17.56;69.14;100904.97;4482534;32;35701;-50
2021/09/30 10:08:18;;;;;;;7.70;5.55;;;;;;;17.59;69.07;100904.91;4482938;32;34866;-50
2021/09/30 10:10:47;;;;;;;8.60;5.72;;;;;;;17.38;68.39;100905.09;4482079;32;33450;-50
2021/09/30 10:13:16;;;;;;;7.57;6.60;;;;;;;17.26;69.62;100905.22;4469067;32;34439;-52
2021/09/30 10:15:44;;;;;;;7.32;5.93;;;;;;;17.20;69.94;100906.19;4482963;32;34850;-50
2021/09/30 10:18:12;;;;;;;8.05;5.80;;;;;;;17.33;69.06;100914.84;4482236;32;34520;-50
2021/09/30 10:20:41;;;;;;;7.45;6.57;;;;;;;17.29;68.92;100926.25;4482235;32;33754;-50
2021/09/30 10:23:10;;;;;;;11.02;7.10;;;;;;;17.35;69.82;100915.69;4481920;32;34010;-53
2021/09/30 10:25:40;;;;;;;8.52;7.20;;;;;;;17.41;70.15;100920.88;4482230;32;34781;-51
2021/09/30 10:28:09;;;;;;;7.37;6.65;;;;;;;17.25;69.80;100916.66;4469436;32;34432;-50
2021/09/30 10:30:45;;;;;;;7.62;5.72;;;;;;;17.30;69.58;100921.00;4482370;32;33485;-52
2021/09/30 10:33:20;;;;;;;8.38;6.12;;;;;;;17.47;68.82;100915.56;4482170;32;34160;-50
2021/09/30 10:35:52;;;;;;;7.62;5.90;;;;;;;17.37;68.74;100919.16;4483089;32;34854;-52
2021/09/30 10:38:28;;;;;;;7.15;6.45;;;;;;;17.42;68.89;100918.22;4484521;32;34165;-51
2021/09/30 10:41:15;;;;;;;8.57;7.10;;;;;;;17.50;69.39;100918.13;4484370;32;34039;-50
2021/09/30 10:43:45;;;;;;;8.65;7.37;;;;;;;17.57;69.87;100919.84;4484865;32;34427;-50
2021/09/30 10:46:21;;;;;;;8.77;7.22;;;;;;;17.46;69.44;100924.31;4485082;32;35010;-53
2021/09/30 10:48:55;;;;;;;9.13;8.10;;;;;;;17.65;69.26;100925.91;4485165;32;34261;-54
2021/09/30 10:51:24;;;;;;;6.85;6.00;;;;;;;17.66;69.26;100927.66;4471263;32;33497;-50
2021/09/30 10:53:52;;;;;;;8.13;7.10;;;;;;;17.81;68.53;100916.06;4470987;32;34009;-51
2021/09/30 10:56:29;;;;;;;7.68;6.35;;;;;;;17.70;69.26;100923.22;4485113;32;35785;-53
2021/09/30 10:59:21;;;;;;;10.77;9.40;;;;;;;17.84;68.21;100927.44;4485022;32;34369;-54
2021/09/30 11:01:49;;;;;;;9.73;7.60;;;;;;;17.83;69.00;100930.94;4474217;32;33278;-52
2021/09/30 11:04:19;;;;;;;11.95;8.02;;;;;;;17.93;68.62;100927.31;4485052;32;33954;-55
2021/09/30 11:07:05;;;;;;;10.43;9.20;;;;;;;17.96;68.14;100921.16;4484928;32;35845;-55
2021/09/30 11:09:33;;;;;;;13.25;10.13;;;;;;;17.86;69.29;100919.50;4484905;32;35183;-53
2021/09/30 11:12:11;;;;;;;9.98;8.57;;;;;;;17.94;69.18;100918.53;4484731;32;33537;-49
2021/09/30 11:14:52;;;;;;;10.10;8.00;;;;;;;17.96;68.91;100914.13;4471144;32;33586;-50
2021/09/30 11:17:39;;;;;;;8.70;6.62;;;;;;;17.88;66.98;100913.34;4483858;32;34949;-50
2021/09/30 11:20:30;;;;;;;10.20;7.30;;;;;;;17.71;69.56;100915.28;4484744;32;34549;-49
2021/09/30 11:22:58;;;;;;;9.77;7.78;;;;;;;17.92;68.78;100907.16;4484650;32;34839;-50
2021/09/30 11:26:03;;;;;;;9.85;8.15;;;;;;;17.81;69.20;100910.78;4484802;32;34099;-49
2021/09/30 11:28:31;;;;;;;11.88;8.40;;;;;;;18.04;68.81;100909.62;4470780;32;34449;-50
2021/09/30 11:31:25;;;;;;;9.52;8.23;;;;;;;18.10;68.89;100916.56;4484731;32;35135;-49
2021/09/30 11:33:55;;;;;;;11.90;7.93;;;;;;;17.71;69.97;100906.56;4471013;32;33404;-49
2021/09/30 11:36:30;;;;;;;8.48;7.62;;;;;;;17.99;68.16;100898.31;4484902;32;34811;-50
2021/09/30 11:38:58;;;;;;;9.32;8.05;;;;;;;18.11;67.62;100905.16;4484666;32;35708;-48
2021/09/30 11:41:30;;;;;;;9.13;7.95;;;;;;;17.93;68.76;100893.09;4484753;32;34236;-49
2021/09/30 11:43:58;;;;;;;10.35;7.95;;;;;;;17.94;69.07;100901.87;4485108;32;34144;-49
2021/09/30 11:46:32;;;;;;;11.25;7.87;;;;;;;17.97;68.14;100901.84;4484871;32;34748;-48
2021/09/30 11:49:02;;;;;;;11.93;8.77;;;;;;;17.82;68.07;100895.00;4484794;32;35101;-49
2021/09/30 11:51:40;;;;;;;13.38;8.70;;;;;;;17.70;68.93;100892.53;4484331;32;34164;-48
2021/09/30 11:54:13;;;;;;;11.52;8.50;;;;;;;17.89;68.74;100898.44;4484433;32;34083;-49
2021/09/30 11:56:48;;;;;;;9.25;8.32;;;;;;;17.89;68.84;100898.44;4484107;32;33918;-49
2021/09/30 11:59:18;;;;;;;11.05;8.48;;;;;;;17.86;67.69;100903.72;4483122;32;35945;-51
2021/09/30 12:01:51;;;;;;;10.23;7.72;;;;;;;18.01;68.78;100901.78;4483479;32;34213;-50
2021/09/30 12:04:38;;;;;;;11.55;7.97;;;;;;;18.17;67.68;100900.69;4483370;32;33264;-50
2021/09/30 12:07:15;;;;;;;11.38;8.00;;;;;;;18.20;68.90;100897.13;4483716;32;34826;-49
2021/09/30 12:09:43;;;;;;;9.80;7.60;;;;;;;18.18;69.31;100898.91;4456423;32;35047;-48
2021/09/30 12:12:10;;;;;;;11.48;8.38;;;;;;;18.48;69.79;100892.34;4483768;32;35041;-48
2021/09/30 12:14:39;;;;;;;9.65;8.57;;;;;;;18.67;68.15;100904.34;4483210;32;33364;-49
2021/09/30 12:17:11;;;;;;;10.23;9.10;;;;;;;18.69;67.97;100905.19;4481290;32;34071;-49
2021/09/30 12:19:45;;;;;;;11.57;9.52;;;;;;;18.68;68.53;100895.56;4482816;32;34899;-50
2021/09/30 12:22:15;;;;;;;9.38;8.38;;;;;;;18.83;67.11;100896.19;4469496;32;34470;-50
2021/09/30 12:24:47;;;;;;;12.82;10.02;;;;;;;18.94;66.06;100893.38;4483749;32;34188;-50
2021/09/30 12:27:15;;;;;;;;;;;;;;;18.75;65.94;100895.47;4484300;32;34157;-51
2021/09/30 12:29:46;;;;;;;11.88;9.07;;;;;;;18.88;66.14;100890.81;4471476;32;34658;-49
2021/09/30 12:32:20;;;;;;;11.35;10.15;;;;;;;18.96;64.80;100894.22;4486225;32;34400;-49
2021/09/30 12:35:04;;;;;;;13.75;11.77;;;;;;;18.82;65.11;100894.47;4471954;32;33321;-50
2021/09/30 12:37:34;;;;;;;12.05;10.85;;;;;;;18.88;65.46;100896.97;4485895;32;33708;-49
2021/09/30 12:40:11;;;;;;;13.43;10.60;;;;;;;18.45;66.35;100900.25;4471756;32;35655;-49
2021/09/30 12:42:39;;;;;;;11.63;10.43;;;;;;;18.69;66.04;100900.81;4486022;32;34921;-49
2021/09/30 12:45:07;;;;;;;11.65;10.50;;;;;;;18.71;65.94;100901.66;4485885;32;34237;-51
2021/09/30 12:47:40;;;;;;;11.10;8.27;;;;;;;18.73;66.29;100899.00;4458634;32;33253;-51
2021/09/30 12:50:11;;;;;;;12.65;9.43;;;;;;;18.52;67.10;100894.91;4471920;32;34735;-51
2021/09/30 12:52:39;;;;;;;10.60;9.55;;;;;;;18.79;66.17;100888.34;4471775;32;34464;-52
2021/09/30 12:55:13;;;;;;;11.40;8.30;;;;;;;18.76;66.40;100880.50;4485691;32;33575;-50
2021/09/30 12:57:40;;;;;;;13.50;9.25;;;;;;;18.80;66.77;100887.47;4485724;32;34103;-52
2021/09/30 13:00:11;;;;;;;10.65;9.15;;;;;;;19.12;65.39;100882.50;4485571;32;35053;-49
2021/09/30 13:02:40;;;;;;;10.50;9.43;;;;;;;19.09;66.14;100884.34;4485766;32;35443;-52
2021/09/30 13:05:08;;;;;;;11.63;9.20;;;;;;;19.21;65.86;100890.25;4486105;32;33337;-55
2021/09/30 13:07:43;;;;;;;10.98;9.25;;;;;;;19.33;65.09;100883.88;4486002;32;33989;-51
2021/09/30 13:10:12;;;;;;;10.88;9.73;;;;;;;19.26;65.86;100880.47;4485656;32;34930;-53
2021/09/30 13:12:58;;;;;;;9.27;7.28;;;;;;;19.29;65.33;100883.06;4485620;32;34968;-53
2021/09/30 13:15:55;;;;;;;7.28;6.50;;;;;;;19.45;64.80;100879.28;4485718;32;33473;-50
2021/09/30 13:18:22;;;;;;;9.85;7.25;;;;;;;19.44;64.25;100885.47;4455574;32;33924;-53
2021/09/30 13:21:05;;;;;;;9.20;7.18;;;;;;;19.28;64.66;100872.56;4485652;32;34660;-51
2021/09/30 13:23:40;;;;;;;12.45;7.30;;;;;;;19.48;64.04;100879.22;4485550;32;34234;-54
2021/09/30 13:26:08;;;;;;;10.70;7.28;;;;;;;19.56;64.95;100881.72;4485756;32;33654;-52
2021/09/30 13:28:35;;;;;;;6.97;5.95;;;;;;;19.64;64.30;100876.25;4485542;32;34794;-55
2021/09/30 13:31:03;;;;;;;6.40;5.45;;;;;;;19.56;62.40;100877.28;4485579;32;34883;-55
2021/09/30 13:33:31;;;;;;;8.82;5.37;;;;;;;19.46;59.95;100867.81;4485516;32;35114;-54
2021/09/30 13:35:58;;;;;;;6.55;4.65;;;;;;;19.52;61.27;100880.00;4485551;32;34517;-56
2021/09/30 13:38:28;;;;;;;7.35;4.72;;;;;;;19.41;61.51;100876.72;4485817;32;33914;-54
2021/09/30 13:40:56;;;;;;;6.78;3.42;;;;;;;19.62;61.41;100872.78;4484833;32;34916;-50
2021/09/30 13:43:24;;;;;;;3.22;2.67;;;;;;;19.52;58.09;100875.59;4485575;32;34061;-51
2021/09/30 13:45:51;;;;;;;6.20;2.60;;;;;;;19.54;56.53;100872.94;4471419;32;34277;-51
2021/09/30 13:48:19;;;;;;;4.07;2.90;;;;;;;19.47;57.26;100874.81;4471531;32;33510;-49
2021/09/30 13:50:46;;;;;;;3.00;2.70;;;;;;;19.63;57.11;100871.91;4471170;32;34517;-49
2021/09/30 13:53:21;;;;;;;2.67;2.08;;;;;;;19.59;58.11;100871.06;4485420;32;34279;-53
2021/09/30 13:55:48;;;;;;;3.30;2.30;;;;;;;19.40;56.31;100870.56;4485474;32;34186;-50
2021/09/30 13:58:16;;;;;;;2.75;2.30;;;;;;;19.36;55.52;100866.25;4485479;32;34597;-52
2021/09/30 14:00:43;;;;;;;2.80;2.05;;;;;;;19.50;56.41;100864.22;4485560;32;34997;-51
2021/09/30 14:03:11;;;;;;;3.20;2.70;;;;;;;19.58;55.39;100864.06;4485465;32;34265;-50
2021/09/30 14:05:38;;;;;;;4.20;2.03;;;;;;;19.44;55.32;100861.72;4485450;32;34267;-50
2021/09/30 14:08:08;;;;;;;5.53;2.45;;;;;;;19.18;56.12;100863.94;4485683;32;34531;-49
2021/09/30 14:10:35;;;;;;;3.30;2.28;;;;;;;19.35;54.77;100861.84;4485243;32;35738;-50
2021/09/30 14:13:03;;;;;;;4.43;2.47;;;;;;;19.43;55.76;100867.87;4485320;32;34665;-50
2021/09/30 14:15:31;;;;;;;3.60;2.60;;;;;;;19.41;56.76;100861.78;4471457;32;33475;-49
2021/09/30 14:17:58;;;;;;;7.68;2.30;;;;;;;19.44;55.62;100856.44;4485409;32;34123;-49
2021/09/30 14:20:26;;;;;;;4.35;2.67;;;;;;;19.40;55.38;100852.09;4485268;32;34609;-50
2021/09/30 14:22:53;;;;;;;5.95;2.30;;;;;;;19.48;53.29;100847.56;4471182;32;34704;-49
2021/09/30 14:25:21;;;;;;;3.85;1.95;;;;;;;19.47;54.85;100853.72;4485345;32;33509;-49